createdAt,value
2019-05-05T00:02:55.312Z,55.71
2019-05-05T00:07:59.416Z,55.63
2019-05-05T00:13:15.007Z,56.13
2019-05-05T00:18:22.625Z,56.20
2019-05-05T00:23:26.799Z,56.50
2019-05-05T00:28:30.947Z,56.24
2019-05-05T00:33:35.178Z,56.24
2019-05-05T00:38:39.272Z,56.39
2019-05-05T00:43:45.131Z,56.70
2019-05-05T00:48:49.420Z,56.70
2019-05-05T00:53:55.501Z,56.75
2019-05-05T00:59:04.567Z,56.93
2019-05-05T01:04:10.401Z,56.93
2019-05-05T01:09:18.845Z,57.73
2019-05-05T01:14:24.884Z,57.73
2019-05-05T01:19:28.936Z,57.54
2019-05-05T01:24:34.222Z,57.64
2019-05-05T01:29:38.458Z,57.95
2019-05-05T01:34:45.046Z,57.95
2019-05-05T01:39:55.915Z,57.55
2019-05-05T01:45:00.012Z,57.55
2019-05-05T01:50:17.539Z,57.81
2019-05-05T01:55:11.534Z,58.53
2019-05-05T02:00:15.948Z,58.49
2019-05-05T02:05:20.118Z,58.75
2019-05-05T02:10:25.427Z,58.48
2019-05-05T02:15:29.854Z,59.06
2019-05-05T02:20:44.916Z,59.06
2019-05-05T02:25:48.786Z,58.84
2019-05-05T02:31:00.218Z,59.08
2019-05-05T02:36:05.595Z,59.25
2019-05-05T02:41:10.393Z,59.25
2019-05-05T02:46:40.309Z,59.17
2019-05-05T02:51:46.024Z,58.87
2019-05-05T02:56:54.099Z,58.87
2019-05-05T03:02:04.295Z,59.42
2019-05-05T03:07:10.835Z,59.17
2019-05-05T03:12:17.097Z,59.41
2019-05-05T03:17:23.337Z,59.42
2019-05-05T03:22:27.784Z,59.44
2019-05-05T03:27:33.993Z,59.77
2019-05-05T03:32:37.891Z,59.42
2019-05-05T03:37:44.504Z,59.50
2019-05-05T03:42:54.648Z,59.59
2019-05-05T03:47:59.561Z,60.12
2019-05-05T03:53:04.943Z,59.99
2019-05-05T03:58:09.342Z,60.02
2019-05-05T04:03:14.696Z,59.99
2019-05-05T04:08:19.240Z,60.28
2019-05-05T04:13:24.417Z,60.07
2019-05-05T04:18:30.176Z,60.32
2019-05-05T04:23:34.303Z,60.16
2019-05-05T04:28:38.337Z,60.16
2019-05-05T04:33:44.359Z,60.63
2019-05-05T04:38:48.145Z,60.37
2019-05-05T04:43:54.550Z,60.38
2019-05-05T04:49:08.895Z,60.69
2019-05-05T04:54:18.883Z,61.13
2019-05-05T04:59:23.602Z,61.13
2019-05-05T05:04:55.921Z,60.29
2019-05-05T05:09:59.957Z,60.18
2019-05-05T05:15:04.498Z,60.15
2019-05-05T05:20:08.764Z,60.15
2019-05-05T05:25:13.564Z,60.37
2019-05-05T05:30:18.009Z,59.91
2019-05-05T05:35:24.227Z,59.94
2019-05-05T05:40:44.446Z,59.54
2019-05-05T05:46:06.546Z,59.62
2019-05-05T05:51:14.611Z,59.62
2019-05-05T05:56:18.780Z,59.17
2019-05-05T06:01:23.961Z,59.72
2019-05-05T06:06:28.194Z,59.30
2019-05-05T06:11:34.300Z,59.29
2019-05-05T06:16:38.127Z,59.62
2019-05-05T06:21:44.059Z,59.20
2019-05-05T06:26:48.213Z,59.56
2019-05-05T06:31:53.798Z,59.33
2019-05-05T06:36:57.988Z,59.33
2019-05-05T06:42:09.558Z,59.25
2019-05-05T06:47:19.675Z,59.18
2019-05-05T06:52:24.848Z,59.24
2019-05-05T06:57:29.008Z,59.61
2019-05-05T07:02:35.748Z,58.91
2019-05-05T07:07:39.793Z,52.36
2019-05-05T07:12:44.255Z,52.72
2019-05-05T07:17:48.240Z,51.33
2019-05-05T07:23:01.479Z,51.50
2019-05-05T07:27:58.550Z,51.47
2019-05-05T07:33:04.569Z,52.00
2019-05-05T07:38:09.265Z,52.00
2019-05-05T07:43:14.618Z,52.08
2019-05-05T07:48:18.842Z,53.50
2019-05-05T07:53:24.493Z,53.46
2019-05-05T07:58:28.675Z,53.46
2019-05-05T08:03:33.860Z,53.68
2019-05-05T08:08:38.423Z,53.68
2019-05-05T08:13:44.365Z,53.72
2019-05-05T08:19:06.390Z,53.98
2019-05-05T08:24:16.502Z,54.74
2019-05-05T08:29:35.941Z,54.74
2019-05-05T08:34:54.379Z,54.92
2019-05-05T08:39:46.011Z,54.47
2019-05-05T08:44:50.110Z,54.71
2019-05-05T08:49:54.193Z,54.49
2019-05-05T08:54:58.308Z,54.62
2019-05-05T09:00:04.713Z,54.74
2019-05-05T09:05:08.469Z,54.74
2019-05-05T09:10:14.285Z,54.44
2019-05-05T09:15:18.613Z,54.89
2019-05-05T09:20:24.223Z,55.08
2019-05-05T09:25:40.742Z,54.72
2019-05-05T09:30:46.711Z,54.67
2019-05-05T09:35:51.022Z,55.00
2019-05-05T09:40:55.130Z,54.93
2019-05-05T09:45:59.172Z,54.93
2019-05-05T09:51:04.336Z,55.30
2019-05-05T09:56:08.737Z,55.30
2019-05-05T10:01:14.030Z,54.98
2019-05-05T10:06:18.278Z,54.59
2019-05-05T10:11:23.837Z,55.33
2019-05-05T10:16:28.164Z,55.38
2019-05-05T10:21:33.927Z,55.38
2019-05-05T10:26:38.089Z,55.36
2019-05-05T10:31:43.658Z,55.51
2019-05-05T10:36:47.992Z,54.99
2019-05-05T10:41:54.684Z,55.49
2019-05-05T10:46:58.222Z,56.84
2019-05-05T10:52:03.695Z,57.02
2019-05-05T10:57:07.973Z,57.02
2019-05-05T11:02:14.090Z,58.61
2019-05-05T11:07:18.514Z,57.35
2019-05-05T11:12:24.587Z,56.76
2019-05-05T11:17:28.829Z,57.26
2019-05-05T11:22:34.651Z,56.88
2019-05-05T11:27:39.020Z,54.47
2019-05-05T11:33:00.684Z,54.50
2019-05-05T11:38:04.959Z,52.46
2019-05-05T11:43:09.038Z,51.72
2019-05-05T11:48:14.773Z,50.63
2019-05-05T11:53:19.084Z,51.72
2019-05-05T11:58:25.045Z,51.11
2019-05-05T12:03:29.220Z,51.45
2019-05-05T12:08:34.496Z,49.82
2019-05-05T12:13:38.785Z,49.82
2019-05-05T12:18:44.878Z,49.91
2019-05-05T12:23:48.590Z,49.91
2019-05-05T12:29:10.603Z,49.83
2019-05-05T12:34:14.718Z,48.91
2019-05-05T12:39:18.882Z,49.11
2019-05-05T12:44:31.111Z,49.11
2019-05-05T12:49:35.217Z,48.02
2019-05-05T12:54:39.289Z,48.77
2019-05-05T12:59:44.425Z,48.77
2019-05-05T13:04:48.630Z,47.89
2019-05-05T13:09:54.393Z,48.23
2019-05-05T13:14:58.414Z,48.72
2019-05-05T13:20:20.155Z,48.72
2019-05-05T13:25:56.171Z,49.51
2019-05-05T13:30:55.293Z,49.57
2019-05-05T13:35:59.595Z,48.73
2019-05-05T13:41:03.904Z,48.99
2019-05-05T13:46:21.041Z,49.43
2019-05-05T13:51:25.172Z,48.68
2019-05-05T13:56:29.378Z,48.67
2019-05-05T14:01:34.223Z,48.99
2019-05-05T14:07:05.292Z,48.87
2019-05-05T14:11:49.030Z,48.69
2019-05-05T14:16:53.854Z,48.62
2019-05-05T14:22:00.047Z,48.15
2019-05-05T14:27:05.904Z,48.15
2019-05-05T14:32:13.495Z,48.20
2019-05-05T14:37:34.094Z,48.03
2019-05-05T14:42:38.314Z,47.45
2019-05-05T14:47:44.140Z,47.00
2019-05-05T14:52:48.179Z,46.69
2019-05-05T14:57:53.462Z,46.69
2019-05-05T15:02:57.782Z,46.68
2019-05-05T15:08:13.719Z,44.14
2019-05-05T15:13:17.775Z,41.90
2019-05-05T15:18:23.984Z,43.20
2019-05-05T15:23:27.847Z,42.16
2019-05-05T15:28:33.648Z,42.20
2019-05-05T15:38:56.019Z,42.92
2019-05-05T15:44:00.060Z,43.31
2019-05-05T15:49:04.370Z,43.31
2019-05-05T15:54:08.555Z,44.07
2019-05-05T15:59:14.320Z,43.63
2019-05-05T16:04:18.479Z,44.83
2019-05-05T16:09:22.512Z,43.29
2019-05-05T16:14:26.609Z,43.29
2019-05-05T16:19:39.253Z,43.93
2019-05-05T16:24:44.728Z,43.93
2019-05-05T16:29:48.889Z,43.68
2019-05-05T16:34:54.754Z,44.06
2019-05-05T16:39:58.667Z,44.22
2019-05-05T16:45:04.516Z,43.58
2019-05-05T16:50:09.620Z,43.58
2019-05-05T16:55:23.852Z,44.37
2019-05-05T17:00:28.185Z,44.16
2019-05-05T17:05:34.473Z,44.45
2019-05-05T17:10:38.288Z,44.45
2019-05-05T17:15:56.848Z,44.14
2019-05-05T17:21:04.263Z,44.39
2019-05-05T17:26:08.590Z,44.39
2019-05-05T17:31:12.848Z,43.78
2019-05-05T17:36:17.160Z,44.77
2019-05-05T17:41:49.480Z,45.14
2019-05-05T17:47:01.268Z,45.14
2019-05-05T17:52:14.199Z,45.77
2019-05-05T17:57:18.038Z,45.04
2019-05-05T18:02:23.684Z,45.04
2019-05-05T18:07:47.810Z,45.54
2019-05-05T18:13:09.358Z,45.49
2019-05-05T18:18:14.019Z,45.75
2019-05-05T18:23:18.314Z,45.81
2019-05-05T18:28:24.542Z,45.81
2019-05-05T18:33:28.543Z,45.85
2019-05-05T18:38:33.658Z,46.09
2019-05-05T18:43:50.084Z,46.72
2019-05-05T18:48:54.525Z,46.80
2019-05-05T18:53:58.820Z,46.80
2019-05-05T18:59:06.209Z,47.13
2019-05-05T19:04:26.918Z,47.60
2019-05-05T19:09:30.985Z,47.60
2019-05-05T19:14:35.102Z,47.80
2019-05-05T19:19:40.797Z,47.80
2019-05-05T19:24:44.889Z,47.83
2019-05-05T19:29:48.947Z,47.83
2019-05-05T19:34:54.342Z,48.41
2019-05-05T19:39:58.490Z,48.76
2019-05-05T19:45:04.314Z,48.76
2019-05-05T19:50:26.304Z,49.08
2019-05-05T19:55:30.435Z,49.17
2019-05-05T20:00:35.818Z,49.00
2019-05-05T20:05:43.087Z,49.11
2019-05-05T20:10:46.114Z,49.51
2019-05-05T20:15:56.852Z,49.51
2019-05-05T20:21:04.780Z,49.46
2019-05-05T20:26:07.378Z,49.90
2019-05-05T20:31:11.405Z,49.88
2019-05-05T20:36:18.563Z,49.96
2019-05-05T20:41:24.860Z,49.37
2019-05-05T20:46:30.360Z,50.48
2019-05-05T20:51:34.401Z,50.70
2019-05-05T20:56:38.667Z,50.44
2019-05-05T21:01:43.876Z,50.91
2019-05-05T21:06:48.387Z,50.68
2019-05-05T21:11:54.573Z,50.67
2019-05-05T21:16:58.443Z,51.44
2019-05-05T21:22:21.495Z,51.44
2019-05-05T21:27:25.667Z,51.54
2019-05-05T21:32:29.747Z,51.54
2019-05-05T21:37:34.094Z,51.42
2019-05-05T21:42:38.184Z,51.37
2019-05-05T21:47:44.224Z,51.52
2019-05-05T21:52:57.038Z,52.07
2019-05-05T21:58:22.238Z,51.85
2019-05-05T22:03:31.665Z,51.85
2019-05-05T22:08:36.463Z,52.16
2019-05-05T22:13:40.588Z,52.31
2019-05-05T22:18:46.737Z,51.94
2019-05-05T22:24:08.363Z,52.16
2019-05-05T22:29:14.092Z,52.59
2019-05-05T22:34:18.592Z,52.68
2019-05-05T22:39:24.329Z,52.60
2019-05-05T22:44:28.966Z,51.76
2019-05-05T22:49:33.145Z,52.43
2019-05-05T22:54:38.827Z,52.50
2019-05-05T22:59:43.299Z,52.50
2019-05-05T23:05:05.351Z,52.36
2019-05-05T23:10:10.098Z,52.75
2019-05-05T23:15:16.149Z,52.75
2019-05-05T23:21:07.657Z,52.69
2019-05-05T23:26:14.021Z,52.88
2019-05-05T23:31:18.408Z,52.88
2019-05-05T23:36:24.185Z,53.19
2019-05-05T23:41:28.817Z,52.89
2019-05-05T23:46:34.860Z,53.09
2019-05-05T23:51:39.511Z,53.50
2019-05-05T23:56:44.206Z,53.11
